createdAt,value
2023-12-04T00:02:04.049Z,14.00
2023-12-04T00:04:54.873Z,9.52
2023-12-04T00:07:45.641Z,13.80
2023-12-04T00:10:36.381Z,21.20
2023-12-04T00:13:27.307Z,12.95
2023-12-04T00:16:18.023Z,9.18
2023-12-04T00:19:10.382Z,20.75
2023-12-04T00:22:01.305Z,12.65
2023-12-04T00:24:52.088Z,12.55
2023-12-04T00:27:42.976Z,19.13
2023-12-04T00:30:33.721Z,12.07
2023-12-04T00:33:24.560Z,19.00
2023-12-04T00:36:16.053Z,19.65
2023-12-04T00:39:06.785Z,12.63
2023-12-04T00:41:57.567Z,11.07
2023-12-04T00:44:48.321Z,11.30
2023-12-04T00:47:39.086Z,19.17
2023-12-04T00:53:44.517Z,8.32
2023-12-04T00:56:35.252Z,14.57
2023-12-04T00:59:26.089Z,17.67
2023-12-04T01:02:16.796Z,25.80
2023-12-04T01:05:07.780Z,13.15
2023-12-04T01:07:58.458Z,11.52
2023-12-04T01:10:49.182Z,12.07
2023-12-04T01:13:39.856Z,12.32
2023-12-04T01:16:30.714Z,12.73
2023-12-04T01:19:21.452Z,18.08
2023-12-04T01:22:12.166Z,23.42
2023-12-04T01:25:04.475Z,19.25
2023-12-04T01:27:55.314Z,15.63
2023-12-04T01:30:46.428Z,11.55
2023-12-04T01:33:37.282Z,17.90
2023-12-04T01:36:28.128Z,11.00
2023-12-04T01:39:18.925Z,14.10
2023-12-04T01:42:09.735Z,18.30
2023-12-04T01:45:00.450Z,12.32
2023-12-04T01:47:51.426Z,22.33
2023-12-04T01:50:42.277Z,19.20
2023-12-04T01:53:34.068Z,12.32
2023-12-04T01:56:25.771Z,11.25
2023-12-04T01:59:17.112Z,15.00
2023-12-04T02:02:08.185Z,8.43
2023-12-04T02:05:00.487Z,17.30
2023-12-04T02:07:51.383Z,19.88
2023-12-04T02:10:42.103Z,20.33
2023-12-04T02:13:32.996Z,13.60
2023-12-04T02:16:26.927Z,14.63
2023-12-04T02:19:18.259Z,16.17
2023-12-04T02:22:09.052Z,23.98
2023-12-04T02:25:01.478Z,18.33
2023-12-04T02:27:54.846Z,16.85
2023-12-04T02:30:49.029Z,15.15
2023-12-04T02:33:41.818Z,12.70
2023-12-04T02:36:33.315Z,15.40
2023-12-04T02:39:24.113Z,9.38
2023-12-04T02:42:15.206Z,15.40
2023-12-04T02:45:06.794Z,15.63
2023-12-04T02:47:57.580Z,9.85
2023-12-04T02:50:48.479Z,17.00
2023-12-04T02:53:39.216Z,11.70
2023-12-04T02:56:29.899Z,15.75
2023-12-04T02:59:21.104Z,14.27
2023-12-04T03:02:11.802Z,20.15
2023-12-04T03:05:02.636Z,13.73
2023-12-04T03:07:53.412Z,9.07
2023-12-04T03:10:44.190Z,12.82
2023-12-04T03:13:35.718Z,14.35
2023-12-04T03:16:26.453Z,17.30
2023-12-04T03:19:17.281Z,15.57
2023-12-04T03:22:08.862Z,17.30
2023-12-04T03:24:59.727Z,13.45
2023-12-04T03:27:50.541Z,20.55
2023-12-04T03:30:41.475Z,14.98
2023-12-04T03:33:32.328Z,30.50
2023-12-04T03:36:23.070Z,17.02
2023-12-04T03:39:13.784Z,13.55
2023-12-04T03:42:05.025Z,12.85
2023-12-04T03:44:55.849Z,17.02
2023-12-04T03:47:46.833Z,12.07
2023-12-04T03:50:37.676Z,23.58
2023-12-04T03:53:28.422Z,8.98
2023-12-04T03:56:19.106Z,11.80
2023-12-04T03:59:11.683Z,10.80
2023-12-04T04:02:02.395Z,12.25
2023-12-04T04:04:53.141Z,16.33
2023-12-04T04:07:44.205Z,18.35
2023-12-04T04:10:35.507Z,12.05
2023-12-04T04:13:26.612Z,19.67
2023-12-04T04:16:17.711Z,8.35
2023-12-04T04:19:08.662Z,12.32
2023-12-04T04:21:59.506Z,12.18
2023-12-04T04:24:50.538Z,13.52
2023-12-04T04:27:41.357Z,29.98
2023-12-04T04:30:32.173Z,14.02
2023-12-04T04:33:22.966Z,18.33
2023-12-04T04:36:13.651Z,24.33
2023-12-04T04:39:04.584Z,22.10
2023-12-04T04:41:55.310Z,27.55
2023-12-04T04:44:46.012Z,30.23
2023-12-04T04:47:36.746Z,50.70
2023-12-04T04:50:27.460Z,25.63
2023-12-04T04:53:18.482Z,33.60
2023-12-04T04:56:10.257Z,16.33
2023-12-04T04:59:01.061Z,16.10
2023-12-04T05:01:52.026Z,19.67
2023-12-04T05:04:42.832Z,28.02
2023-12-04T05:07:33.588Z,33.88
2023-12-04T05:10:24.311Z,25.58
2023-12-04T05:13:15.159Z,24.05
2023-12-04T05:16:06.361Z,23.35
2023-12-04T05:18:57.133Z,37.85
2023-12-04T05:21:47.961Z,12.05
2023-12-04T05:24:38.743Z,14.98
2023-12-04T05:27:29.485Z,14.52
2023-12-04T05:30:20.297Z,30.90
2023-12-04T05:33:11.088Z,26.92
2023-12-04T05:36:02.275Z,24.10
2023-12-04T05:38:55.092Z,12.25
2023-12-04T05:41:46.551Z,15.02
2023-12-04T05:44:37.235Z,27.25
2023-12-04T05:47:27.971Z,15.02
2023-12-04T05:50:19.289Z,22.95
2023-12-04T05:53:10.251Z,27.20
2023-12-04T05:56:00.941Z,27.92
2023-12-04T05:58:51.662Z,43.28
2023-12-04T06:01:42.467Z,26.60
2023-12-04T06:04:33.179Z,29.40
2023-12-04T06:07:23.887Z,37.03
2023-12-04T06:10:14.735Z,29.92
2023-12-04T06:13:05.583Z,36.95
2023-12-04T06:15:56.480Z,35.33
2023-12-04T06:18:47.342Z,36.95
2023-12-04T06:21:38.073Z,33.75
2023-12-04T06:24:29.168Z,31.75
2023-12-04T06:27:21.538Z,33.00
2023-12-04T06:30:13.071Z,28.25
2023-12-04T06:33:04.246Z,33.65
2023-12-04T06:35:55.604Z,30.33
2023-12-04T06:38:49.143Z,30.25
2023-12-04T06:41:41.485Z,38.85
2023-12-04T06:44:32.525Z,28.92
2023-12-04T06:47:24.827Z,41.53
2023-12-04T06:50:15.614Z,65.28
2023-12-04T06:53:06.362Z,49.38
2023-12-04T06:55:57.080Z,64.70
2023-12-04T06:58:47.988Z,69.18
2023-12-04T07:01:38.800Z,71.38
2023-12-04T07:04:29.746Z,70.30
2023-12-04T07:07:20.593Z,92.43
2023-12-04T07:10:16.367Z,71.18
2023-12-04T07:13:07.464Z,52.88
2023-12-04T07:16:00.873Z,62.45
2023-12-04T07:18:52.007Z,72.25
2023-12-04T07:21:43.278Z,59.03
2023-12-04T07:24:34.241Z,61.20
2023-12-04T07:27:25.037Z,63.80
2023-12-04T07:30:18.398Z,48.17
2023-12-04T07:33:10.697Z,61.63
2023-12-04T07:36:02.371Z,43.22
2023-12-04T07:38:55.023Z,45.67
2023-12-04T07:41:45.868Z,88.13
2023-12-04T07:44:37.195Z,51.90
2023-12-04T07:47:27.893Z,51.35
2023-12-04T07:50:18.621Z,63.45
2023-12-04T07:53:10.973Z,66.43
2023-12-04T07:56:05.180Z,63.20
2023-12-04T07:58:55.924Z,58.40
2023-12-04T08:01:46.943Z,33.08
2023-12-04T08:04:37.728Z,34.58
2023-12-04T08:07:28.465Z,41.88
2023-12-04T08:10:19.282Z,36.15
2023-12-04T08:13:10.039Z,49.40
2023-12-04T08:16:01.903Z,79.93
2023-12-04T08:18:52.841Z,82.97
2023-12-04T08:21:43.571Z,53.80
2023-12-04T08:24:34.310Z,57.38
2023-12-04T08:27:25.684Z,60.72
2023-12-04T08:30:16.717Z,25.13
2023-12-04T08:33:07.776Z,59.45
2023-12-04T08:35:58.699Z,28.75
2023-12-04T08:38:49.486Z,24.50
2023-12-04T08:41:45.432Z,34.65
2023-12-04T08:44:41.565Z,33.20
2023-12-04T08:47:32.458Z,22.40
2023-12-04T08:50:23.417Z,22.40
2023-12-04T08:53:14.219Z,25.98
2023-12-04T08:56:05.738Z,16.10
2023-12-04T08:58:56.977Z,19.70
2023-12-04T09:01:47.889Z,12.63
2023-12-04T09:04:38.809Z,14.82
2023-12-04T09:10:31.466Z,35.63
2023-12-04T09:13:35.109Z,68.63
2023-12-04T09:16:25.843Z,80.28
2023-12-04T09:19:17.189Z,43.22
2023-12-04T09:22:17.127Z,18.00
2023-12-04T09:25:10.989Z,20.38
2023-12-04T09:28:01.787Z,14.05
2023-12-04T09:30:52.647Z,18.52
2023-12-04T09:33:43.690Z,17.75
2023-12-04T09:36:34.530Z,12.98
2023-12-04T09:39:25.841Z,22.80
2023-12-04T09:42:19.725Z,46.95
2023-12-04T09:45:11.915Z,27.30
2023-12-04T09:48:03.138Z,30.30
2023-12-04T09:50:55.315Z,27.48
2023-12-04T09:53:49.848Z,34.83
2023-12-04T09:56:40.679Z,19.80
2023-12-04T09:59:32.245Z,31.35
2023-12-04T10:02:23.130Z,18.67
2023-12-04T10:05:14.690Z,20.90
2023-12-04T10:08:05.751Z,22.05
2023-12-04T10:10:56.598Z,25.25
2023-12-04T10:13:58.058Z,20.73
2023-12-04T10:16:51.203Z,16.95
2023-12-04T10:19:42.056Z,11.43
2023-12-04T10:22:32.778Z,10.68
2023-12-04T10:25:26.422Z,17.52
2023-12-04T10:28:18.979Z,16.92
2023-12-04T10:31:10.690Z,11.95
2023-12-04T10:34:03.383Z,15.98
2023-12-04T10:36:54.579Z,7.95
2023-12-04T10:39:49.753Z,6.85
2023-12-04T10:42:40.797Z,10.00
2023-12-04T10:45:31.663Z,10.63
2023-12-04T10:48:22.657Z,8.63
2023-12-04T10:51:14.036Z,8.40
2023-12-04T10:54:06.838Z,10.25
2023-12-04T10:57:06.130Z,8.82
2023-12-04T11:02:57.560Z,13.40
2023-12-04T11:06:01.125Z,56.85
2023-12-04T11:08:54.601Z,31.65
2023-12-04T11:11:49.502Z,21.70
2023-12-04T11:15:00.362Z,12.93
2023-12-04T11:17:59.630Z,14.25
2023-12-04T11:21:07.560Z,5.97
2023-12-04T11:23:59.337Z,5.60
2023-12-04T11:26:50.602Z,4.15
2023-12-04T11:29:41.509Z,4.75
2023-12-04T11:32:32.312Z,5.78
2023-12-04T11:35:26.978Z,8.60
2023-12-04T11:38:20.754Z,4.28
2023-12-04T11:41:25.783Z,4.63
2023-12-04T11:44:19.601Z,7.07
2023-12-04T11:47:12.439Z,4.78
2023-12-04T11:50:06.107Z,8.82
2023-12-04T11:52:56.916Z,14.15
2023-12-04T11:55:47.713Z,9.15
2023-12-04T11:58:48.245Z,15.07
2023-12-04T12:01:39.251Z,9.45
2023-12-04T12:04:32.340Z,8.52
2023-12-04T12:07:24.430Z,7.38
2023-12-04T12:10:16.527Z,6.60
2023-12-04T12:13:07.425Z,15.68
2023-12-04T12:15:59.847Z,15.60
2023-12-04T12:18:50.792Z,12.82
2023-12-04T12:21:41.931Z,7.45
2023-12-04T12:24:32.874Z,5.90
2023-12-04T12:27:26.619Z,6.53
2023-12-04T12:30:17.409Z,3.85
2023-12-04T12:33:09.713Z,7.28
2023-12-04T12:36:03.981Z,5.55
2023-12-04T12:38:55.920Z,3.00
2023-12-04T12:41:51.673Z,2.85
2023-12-04T12:44:43.810Z,4.65
2023-12-04T12:47:36.291Z,3.72
2023-12-04T12:50:28.325Z,4.38
2023-12-04T12:53:19.902Z,22.85
2023-12-04T12:56:11.356Z,3.63
2023-12-04T12:59:02.081Z,3.55
2023-12-04T13:01:54.093Z,1.48
2023-12-04T13:04:45.909Z,3.88
2023-12-04T13:07:36.803Z,3.08
2023-12-04T13:10:27.656Z,5.40
2023-12-04T13:13:18.434Z,5.60
2023-12-04T13:19:08.467Z,3.00
2023-12-04T13:21:59.290Z,3.38
2023-12-04T13:24:50.002Z,2.85
2023-12-04T13:27:40.876Z,3.00
2023-12-04T13:30:31.608Z,3.55
2023-12-04T13:33:22.746Z,28.48
2023-12-04T13:36:13.518Z,21.60
2023-12-04T13:39:05.692Z,11.65
2023-12-04T13:42:15.024Z,12.50
2023-12-04T13:45:10.456Z,14.98
2023-12-04T13:48:01.317Z,25.20
2023-12-04T13:50:52.110Z,10.15
2023-12-04T13:53:46.125Z,79.40
2023-12-04T13:56:46.558Z,50.40
2023-12-04T13:59:40.602Z,94.90
2023-12-04T14:02:31.595Z,66.32
2023-12-04T14:05:23.345Z,228.68
2023-12-04T14:08:14.371Z,178.07
2023-12-04T14:11:06.279Z,172.13
2023-12-04T14:13:57.030Z,58.83
2023-12-04T14:16:48.635Z,22.42
2023-12-04T14:19:40.833Z,35.08
2023-12-04T14:22:31.828Z,34.38
2023-12-04T14:25:22.597Z,95.47
2023-12-04T14:28:13.337Z,116.28
2023-12-04T14:31:05.944Z,64.45
2023-12-04T14:33:56.901Z,45.58
2023-12-04T14:36:48.403Z,45.72
2023-12-04T14:39:39.146Z,75.28
2023-12-04T14:42:29.935Z,50.03
2023-12-04T14:45:22.058Z,35.05
2023-12-04T14:48:12.935Z,57.55
2023-12-04T14:51:05.027Z,43.97
2023-12-04T14:54:14.654Z,33.65
2023-12-04T14:57:24.806Z,35.22
2023-12-04T15:00:34.557Z,41.05
2023-12-04T15:03:25.352Z,27.27
2023-12-04T15:06:42.603Z,41.67
2023-12-04T15:09:56.775Z,35.83
2023-12-04T15:13:05.810Z,23.08
2023-12-04T15:16:15.375Z,36.83
2023-12-04T15:21:57.065Z,28.13
2023-12-04T15:24:47.831Z,75.90
2023-12-04T15:27:39.074Z,94.85
2023-12-04T15:30:30.401Z,80.10
2023-12-04T15:33:21.804Z,62.67
2023-12-04T15:36:13.323Z,33.58
2023-12-04T15:39:04.246Z,42.97
2023-12-04T15:41:55.016Z,50.35
2023-12-04T15:44:45.951Z,68.60
2023-12-04T15:47:36.796Z,73.00
2023-12-04T15:50:27.657Z,66.38
2023-12-04T15:53:19.559Z,74.35
2023-12-04T15:56:11.036Z,123.07
2023-12-04T15:59:02.177Z,60.22
2023-12-04T16:01:53.064Z,65.28
2023-12-04T16:04:44.001Z,67.72
2023-12-04T16:07:34.881Z,111.50
2023-12-04T16:10:25.613Z,71.80
2023-12-04T16:13:17.456Z,78.80
2023-12-04T16:16:08.852Z,61.85
2023-12-04T16:18:59.765Z,84.40
2023-12-04T16:21:50.719Z,57.25
2023-12-04T16:24:41.553Z,60.55
2023-12-04T16:27:33.055Z,71.40
2023-12-04T16:30:23.772Z,37.78
2023-12-04T16:33:14.700Z,43.00
2023-12-04T16:36:06.336Z,38.67
2023-12-04T16:38:57.090Z,33.42
2023-12-04T16:41:48.643Z,21.85
2023-12-04T16:44:39.380Z,30.13
2023-12-04T16:47:32.278Z,37.38
2023-12-04T16:50:24.947Z,39.08
2023-12-04T16:53:15.833Z,32.95
2023-12-04T16:56:14.017Z,28.90
2023-12-04T16:59:04.734Z,23.90
2023-12-04T17:01:55.922Z,23.08
2023-12-04T17:04:46.885Z,17.42
2023-12-04T17:07:37.775Z,21.08
2023-12-04T17:10:30.069Z,12.45
2023-12-04T17:13:21.339Z,14.98
2023-12-04T17:16:12.168Z,20.33
2023-12-04T17:19:03.033Z,27.63
2023-12-04T17:21:53.895Z,25.33
2023-12-04T17:24:45.550Z,28.58
2023-12-04T17:27:37.061Z,28.65
2023-12-04T17:30:27.841Z,23.25
2023-12-04T17:33:20.027Z,21.33
2023-12-04T17:36:12.225Z,30.48
2023-12-04T17:39:04.349Z,15.52
2023-12-04T17:41:55.122Z,24.70
2023-12-04T17:44:46.784Z,31.73
2023-12-04T17:47:37.930Z,30.35
2023-12-04T17:50:28.713Z,22.10
2023-12-04T17:53:19.601Z,24.85
2023-12-04T17:56:11.467Z,20.27
2023-12-04T17:59:03.690Z,15.98
2023-12-04T18:01:54.446Z,13.38
2023-12-04T18:04:45.815Z,7.93
2023-12-04T18:07:37.604Z,11.38
2023-12-04T18:10:28.354Z,17.45
2023-12-04T18:13:19.573Z,16.20
2023-12-04T18:16:10.373Z,18.80
2023-12-04T18:19:01.302Z,19.02
2023-12-04T18:21:52.100Z,27.98
2023-12-04T18:24:42.850Z,25.13
2023-12-04T18:27:35.218Z,17.38
2023-12-04T18:30:27.214Z,11.02
2023-12-04T18:33:18.527Z,21.17
2023-12-04T18:36:10.397Z,15.88
2023-12-04T18:39:02.955Z,24.40
2023-12-04T18:41:54.176Z,44.42
2023-12-04T18:44:45.904Z,43.90
2023-12-04T18:47:50.648Z,42.33
2023-12-04T18:50:43.026Z,29.35
2023-12-04T18:53:34.031Z,23.95
2023-12-04T18:56:24.914Z,29.63
2023-12-04T18:59:15.621Z,57.08
2023-12-04T19:02:06.457Z,43.42
2023-12-04T19:04:57.406Z,23.35
2023-12-04T19:07:48.273Z,17.70
2023-12-04T19:10:39.024Z,15.02
2023-12-04T19:13:29.846Z,19.33
2023-12-04T19:16:20.539Z,12.85
2023-12-04T19:19:12.133Z,18.15
2023-12-04T19:22:02.954Z,15.52
2023-12-04T19:24:53.684Z,16.25
2023-12-04T19:27:45.087Z,46.22
2023-12-04T19:30:37.339Z,21.58
2023-12-04T19:33:30.992Z,23.58
2023-12-04T19:36:22.335Z,16.48
2023-12-04T19:39:13.096Z,12.20
2023-12-04T19:42:04.109Z,31.63
2023-12-04T19:44:57.226Z,26.42
2023-12-04T19:47:48.300Z,34.33
2023-12-04T19:50:40.243Z,23.42
2023-12-04T19:53:31.008Z,20.60
2023-12-04T19:56:21.712Z,13.95
2023-12-04T19:59:12.545Z,12.60
2023-12-04T20:02:03.533Z,18.55
2023-12-04T20:04:54.462Z,28.65
2023-12-04T20:07:45.500Z,37.55
2023-12-04T20:10:39.034Z,27.02
2023-12-04T20:13:30.033Z,29.92
2023-12-04T20:16:20.891Z,17.13
2023-12-04T20:19:11.720Z,21.55
2023-12-04T20:22:02.573Z,14.88
2023-12-04T20:24:53.476Z,13.40
2023-12-04T20:27:44.233Z,16.73
2023-12-04T20:30:35.954Z,20.70
2023-12-04T20:33:27.034Z,16.52
2023-12-04T20:36:18.222Z,19.45
2023-12-04T20:39:09.388Z,37.63
2023-12-04T20:42:00.164Z,26.27
2023-12-04T20:44:51.484Z,19.33
2023-12-04T20:47:42.241Z,14.20
2023-12-04T20:50:34.546Z,13.05
2023-12-04T20:53:27.139Z,9.52
2023-12-04T20:56:21.124Z,19.83
2023-12-04T20:59:12.061Z,26.88
2023-12-04T21:02:04.732Z,304.48
2023-12-04T21:04:55.557Z,311.63
2023-12-04T21:07:46.406Z,382.15
2023-12-04T21:10:37.125Z,234.88
2023-12-04T21:13:27.858Z,365.33
2023-12-04T21:16:18.962Z,106.35
2023-12-04T21:19:09.900Z,134.95
2023-12-04T21:22:00.718Z,88.22
2023-12-04T21:24:51.531Z,101.75
2023-12-04T21:27:42.542Z,145.88
2023-12-04T21:30:34.496Z,116.30
2023-12-04T21:33:26.627Z,324.27
2023-12-04T21:36:17.553Z,247.35
2023-12-04T21:39:08.605Z,87.60
2023-12-04T21:41:59.513Z,23.23
2023-12-04T21:44:50.295Z,53.25
2023-12-04T21:47:41.232Z,42.20
2023-12-04T21:50:31.984Z,40.60
2023-12-04T21:53:22.755Z,94.95
2023-12-04T21:56:13.565Z,47.08
2023-12-04T21:59:12.268Z,118.22
2023-12-04T22:02:07.215Z,185.50
2023-12-04T22:04:58.139Z,175.85
2023-12-04T22:07:50.485Z,167.63
2023-12-04T22:10:41.330Z,114.70
2023-12-04T22:13:32.102Z,143.93
2023-12-04T22:16:22.794Z,67.25
2023-12-04T22:19:13.711Z,43.45
2023-12-04T22:22:05.121Z,113.32
2023-12-04T22:24:55.901Z,77.93
2023-12-04T22:27:46.694Z,179.75
2023-12-04T22:30:37.494Z,212.90
2023-12-04T22:33:28.338Z,161.57
2023-12-04T22:36:19.598Z,90.55
2023-12-04T22:39:10.474Z,33.40
2023-12-04T22:42:01.309Z,128.00
2023-12-04T22:44:52.023Z,107.32
2023-12-04T22:47:43.520Z,47.25
2023-12-04T22:50:34.303Z,56.00
2023-12-04T22:53:25.036Z,285.35
2023-12-04T22:56:15.807Z,229.73
2023-12-04T22:59:06.557Z,134.45
2023-12-04T23:01:57.405Z,34.42
2023-12-04T23:04:48.287Z,72.25
2023-12-04T23:07:39.312Z,36.22
2023-12-04T23:10:30.181Z,103.43
2023-12-04T23:13:21.806Z,111.43
2023-12-04T23:16:13.553Z,150.68
2023-12-04T23:19:04.820Z,119.60
2023-12-04T23:21:55.644Z,92.82
2023-12-04T23:24:46.578Z,64.95
2023-12-04T23:27:38.244Z,127.20
2023-12-04T23:30:29.455Z,57.80
2023-12-04T23:33:20.626Z,37.50
2023-12-04T23:36:12.135Z,37.50
2023-12-04T23:39:03.615Z,129.82
2023-12-04T23:41:54.407Z,89.15
2023-12-04T23:44:45.685Z,97.78
2023-12-04T23:47:36.503Z,48.38
2023-12-04T23:50:27.255Z,24.73
2023-12-04T23:53:17.975Z,20.52
2023-12-04T23:56:09.886Z,13.98
2023-12-04T23:59:00.586Z,21.48
